Time;durP1;ratioP1;P1;durP2;ratioP2;P2;SDS_P1;SDS_P2;PMS_P1;PMS_P2;Temp;Humidity;BMP_temperature;BMP_pressure;BME280_temperature;BME280_humidity;BME280_pressure;Samples;Min_cycle;Max_cycle;Signal;HPM_P1;HPM_P2
2022/06/19 00:00:29;;;;;;;17.85;2.72;;;14.00;90.70;;;;;;6220004;23;20047;-79
2022/06/19 00:02:55;;;;;;;16.52;2.88;;;14.00;90.90;;;;;;6195247;23;20498;-80
2022/06/19 00:05:21;;;;;;;16.67;2.33;;;14.00;91.30;;;;;;6195455;23;20043;-82
2022/06/19 00:07:47;;;;;;;19.67;2.70;;;14.00;91.30;;;;;;6195694;23;20023;-78
2022/06/19 00:10:13;;;;;;;25.42;3.28;;;14.00;91.20;;;;;;6195161;23;20446;-81
2022/06/19 00:12:39;;;;;;;;;;;14.00;91.40;;;;;;6195853;23;20441;-79
2022/06/19 00:15:06;;;;;;;19.38;2.67;;;14.00;91.50;;;;;;6195810;23;19917;-80
2022/06/19 00:17:32;;;;;;;13.60;2.20;;;14.00;91.30;;;;;;6195424;23;20062;-79
2022/06/19 00:19:58;;;;;;;15.48;2.50;;;13.90;91.70;;;;;;6219804;23;20012;-82
2022/06/19 00:22:24;;;;;;;17.17;3.13;;;14.00;91.50;;;;;;6194967;23;20011;-78
2022/06/19 00:24:49;;;;;;;19.17;2.97;;;14.00;91.50;;;;;;6194915;23;20085;-80
2022/06/19 00:27:16;;;;;;;15.32;2.63;;;14.00;91.40;;;;;;6195497;23;20008;-80
2022/06/19 00:29:42;;;;;;;;;;;14.00;91.20;;;;;;6195715;23;20008;-80
2022/06/19 00:32:08;;;;;;;18.15;3.42;;;13.90;91.20;;;;;;6195038;23;20365;-80
2022/06/19 00:34:37;;;;;;;16.48;2.45;;;13.90;91.10;;;;;;6194497;23;20008;-78
2022/06/19 00:37:04;;;;;;;20.20;3.00;;;14.00;91.00;;;;;;6195034;23;20011;-82
2022/06/19 00:39:32;;;;;;;;;;;14.00;90.80;;;;;;6197866;23;20062;-80
2022/06/19 00:42:00;;;;;;;18.63;2.80;;;14.00;90.90;;;;;;6200272;23;19938;-80
2022/06/19 00:44:26;;;;;;;18.88;3.30;;;14.00;90.90;;;;;;6203195;23;20008;-80
2022/06/19 00:47:29;;;;;;;17.65;3.38;;;14.00;91.30;;;;;;6196830;23;20008;-78
2022/06/19 00:49:59;;;;;;;17.40;2.95;;;14.10;91.30;;;;;;6071134;23;20045;-79
2022/06/19 00:52:36;;;;;;;21.08;3.63;;;14.10;91.30;;;;;;6174785;23;20004;-81
2022/06/19 00:55:09;;;;;;;20.48;2.88;;;14.20;91.70;;;;;;6219809;23;20126;-81
2022/06/19 00:57:39;;;;;;;18.63;2.80;;;14.10;92.00;;;;;;6194731;23;20015;-80
2022/06/19 01:00:23;;;;;;;21.38;3.28;;;14.20;91.70;;;;;;6194405;23;20041;-78
2022/06/19 01:02:51;;;;;;;20.92;2.88;;;14.20;91.60;;;;;;6194714;23;20012;-79
2022/06/19 01:05:17;;;;;;;13.70;2.90;;;14.20;91.10;;;;;;6194178;23;20034;-80
2022/06/19 01:07:45;;;;;;;16.35;2.55;;;14.20;91.00;;;;;;6194982;23;20011;-80
2022/06/19 01:10:13;;;;;;;18.85;3.53;;;14.30;90.80;;;;;;6194579;23;20012;-81
2022/06/19 01:12:43;;;;;;;20.20;3.50;;;14.20;91.00;;;;;;6194041;23;20077;-80
2022/06/19 01:15:19;;;;;;;13.18;2.83;;;14.30;90.90;;;;;;6194769;23;20323;-79
2022/06/19 01:17:47;;;;;;;22.38;2.72;;;14.20;90.90;;;;;;6195500;23;20310;-83
2022/06/19 01:20:15;;;;;;;13.23;2.53;;;14.20;90.90;;;;;;6195120;23;20312;-80
2022/06/19 01:22:47;;;;;;;17.00;3.00;;;14.10;90.40;;;;;;6194188;23;20446;-80
2022/06/19 01:25:17;;;;;;;23.20;3.67;;;14.20;90.40;;;;;;6219702;23;20016;-78
2022/06/19 01:30:37;;;;;;;20.08;2.83;;;14.20;90.70;;;;;;6219435;23;20094;-79
2022/06/19 01:33:07;;;;;;;19.05;3.10;;;14.20;90.90;;;;;;6194476;23;20007;-79
2022/06/19 01:35:35;;;;;;;13.88;2.67;;;14.10;90.90;;;;;;6194294;23;20065;-80
2022/06/19 01:38:10;;;;;;;17.10;2.50;;;14.10;90.80;;;;;;6219769;23;20009;-81
2022/06/19 01:40:39;;;;;;;17.20;2.70;;;14.10;90.60;;;;;;6195133;23;20370;-80
2022/06/19 01:43:05;;;;;;;18.17;2.42;;;14.00;90.30;;;;;;6194633;23;20461;-80
2022/06/19 01:45:31;;;;;;;20.02;2.72;;;14.10;90.20;;;;;;6194280;23;20016;-78
2022/06/19 01:47:58;;;;;;;19.25;3.17;;;14.10;90.30;;;;;;6194503;23;20012;-80
2022/06/19 01:50:29;;;;;;;17.85;2.75;;;14.00;90.40;;;;;;6194121;23;20450;-79
2022/06/19 01:53:28;;;;;;;16.38;2.65;;;14.10;90.40;;;;;;6194634;23;20435;-79
2022/06/19 01:55:54;;;;;;;16.80;2.47;;;14.10;90.50;;;;;;6194386;23;20050;-78
2022/06/19 01:58:22;;;;;;;21.50;3.83;;;14.10;90.30;;;;;;6194201;23;20408;-79
2022/06/19 02:00:49;;;;;;;17.17;3.28;;;14.10;90.20;;;;;;6219467;23;20039;-81
2022/06/19 02:03:39;;;;;;;20.20;3.10;;;14.10;90.30;;;;;;6193914;23;20008;-80
2022/06/19 02:06:07;;;;;;;19.00;3.60;;;14.10;90.40;;;;;;6194911;23;20011;-79
2022/06/19 02:08:34;;;;;;;20.05;3.25;;;14.10;90.10;;;;;;6219536;23;20426;-80
2022/06/19 02:11:03;;;;;;;19.40;3.15;;;14.10;90.00;;;;;;6197021;23;20030;-79
2022/06/19 02:13:31;;;;;;;15.30;2.97;;;14.10;89.70;;;;;;6204410;23;20011;-79
2022/06/19 02:15:57;;;;;;;19.13;3.28;;;14.10;89.30;;;;;;6225550;23;20082;-79
2022/06/19 02:18:28;;;;;;;20.58;2.92;;;14.10;89.10;;;;;;6194537;23;20087;-81
2022/06/19 02:20:56;;;;;;;17.15;2.92;;;14.00;88.20;;;;;;6194850;23;20035;-80
2022/06/19 02:23:30;;;;;;;18.50;3.15;;;14.00;88.20;;;;;;6193491;23;20012;-80
2022/06/19 02:25:59;;;;;;;20.55;2.58;;;14.00;85.30;;;;;;6219509;23;20044;-78
2022/06/19 02:28:27;;;;;;;12.65;2.50;;;14.10;85.50;;;;;;6194154;23;20019;-79
2022/06/19 02:30:54;;;;;;;19.02;2.80;;;14.10;83.30;;;;;;6194503;23;20318;-80
2022/06/19 02:33:24;;;;;;;12.50;2.50;;;14.00;84.60;;;;;;6218947;23;20010;-78
2022/06/19 02:35:50;;;;;;;16.48;2.45;;;14.00;83.50;;;;;;6194494;23;20087;-79
2022/06/19 02:38:20;;;;;;;19.50;2.58;;;14.00;82.90;;;;;;6194460;23;20036;-80
2022/06/19 02:40:58;;;;;;;21.50;3.67;;;14.00;85.40;;;;;;6193869;23;20004;-79
2022/06/19 02:43:30;;;;;;;21.05;3.72;;;13.90;87.90;;;;;;6193693;23;20439;-80
2022/06/19 02:45:56;;;;;;;17.90;3.10;;;13.80;89.60;;;;;;6194311;23;20435;-78
2022/06/19 02:48:27;;;;;;;;;;;13.70;90.10;;;;;;6219571;23;20008;-80
2022/06/19 02:50:54;;;;;;;20.08;3.33;;;13.60;91.30;;;;;;6219241;23;19907;-80
2022/06/19 02:53:21;;;;;;;17.67;2.92;;;13.40;92.00;;;;;;6193414;23;20040;-80
2022/06/19 02:55:47;;;;;;;;;;;13.30;92.30;;;;;;6194311;23;20095;-79
2022/06/19 02:58:13;;;;;;;20.15;2.95;;;13.20;93.60;;;;;;6194621;23;19947;-78
2022/06/19 03:00:39;;;;;;;;;;;13.10;92.60;;;;;;6194523;23;20011;-78
2022/06/19 03:03:12;;;;;;;20.80;3.10;;;13.00;94.30;;;;;;6193521;23;19907;-79
2022/06/19 03:05:38;;;;;;;16.20;2.38;;;12.90;93.90;;;;;;6194269;23;20012;-78
2022/06/19 03:08:04;;;;;;;20.05;3.05;;;12.90;94.40;;;;;;6194267;23;20059;-78
2022/06/19 03:10:30;;;;;;;20.42;3.63;;;12.90;94.60;;;;;;6193514;23;20008;-78
2022/06/19 03:12:58;;;;;;;24.83;3.35;;;12.80;95.20;;;;;;6193127;23;20507;-78
2022/06/19 03:15:35;;;;;;;17.48;3.20;;;12.80;94.80;;;;;;6243882;23;20035;-77
2022/06/19 03:18:13;;;;;;;18.98;2.85;;;12.70;96.50;;;;;;6194213;23;20062;-76
2022/06/19 03:20:46;;;;;;;17.42;2.80;;;12.60;95.40;;;;;;6193439;23;20314;-77
2022/06/19 03:23:15;;;;;;;19.77;2.88;;;12.50;95.50;;;;;;6194612;23;20016;-78
2022/06/19 03:25:44;;;;;;;22.98;3.05;;;12.40;95.60;;;;;;6195492;23;20047;-79
2022/06/19 03:28:14;;;;;;;21.38;3.10;;;12.20;97.40;;;;;;6195553;23;20090;-78
2022/06/19 03:30:42;;;;;;;14.25;2.15;;;12.30;96.70;;;;;;6220932;23;20040;-76
2022/06/19 03:33:14;;;;;;;19.88;3.05;;;12.20;96.60;;;;;;6220246;23;20300;-77
2022/06/19 03:35:42;;;;;;;17.77;2.92;;;12.10;97.10;;;;;;6195476;23;20008;-76
2022/06/19 03:38:35;;;;;;;21.00;3.42;;;12.10;97.70;;;;;;6220615;23;20430;-77
2022/06/19 03:41:03;;;;;;;21.05;3.95;;;12.10;98.40;;;;;;6181296;22;20012;-78
2022/06/19 03:43:37;;;;;;;18.83;2.58;;;12.00;98.50;;;;;;6248665;22;20010;-79
2022/06/19 03:46:12;;;;;;;23.20;3.05;;;12.10;97.90;;;;;;6224369;22;20048;-79
2022/06/19 03:49:09;;;;;;;16.52;2.90;;;12.00;98.50;;;;;;6226475;23;20027;-77
2022/06/19 03:51:36;;;;;;;20.77;3.30;;;12.00;98.20;;;;;;6219086;23;20008;-78
2022/06/19 03:54:12;;;;;;;19.75;2.72;;;12.00;97.90;;;;;;6195197;23;20070;-77
2022/06/19 03:56:55;;;;;;;21.80;3.17;;;11.90;98.20;;;;;;6217469;23;20066;-77
2022/06/19 03:59:39;;;;;;;19.10;3.95;;;12.00;98.40;;;;;;6194475;23;20378;-78
2022/06/19 04:02:08;;;;;;;21.27;3.50;;;11.90;98.40;;;;;;6192896;22;20031;-79
2022/06/19 04:04:47;;;;;;;21.10;2.92;;;11.90;98.30;;;;;;6247277;23;20051;-79
2022/06/19 04:07:16;;;;;;;27.77;3.33;;;11.80;98.90;;;;;;6194864;23;20031;-78
2022/06/19 04:09:48;;;;;;;22.55;2.92;;;11.70;99.10;;;;;;6195221;23;20004;-77
2022/06/19 04:12:16;;;;;;;24.88;3.22;;;11.80;98.90;;;;;;6219694;22;20004;-77
2022/06/19 04:14:53;;;;;;;19.67;2.70;;;11.80;98.90;;;;;;6195922;23;20015;-78
2022/06/19 04:17:19;;;;;;;24.63;3.47;;;11.80;99.20;;;;;;6194828;23;20015;-76
2022/06/19 04:19:49;;;;;;;19.25;2.80;;;11.70;99.40;;;;;;6220453;23;20004;-77
2022/06/19 04:22:15;;;;;;;13.15;2.78;;;11.80;99.50;;;;;;6193797;22;20030;-77
2022/06/19 04:24:44;;;;;;;21.95;3.40;;;11.80;98.60;;;;;;6195482;23;20512;-79
2022/06/19 04:27:14;;;;;;;25.33;3.28;;;11.90;99.10;;;;;;6194997;23;20012;-77
2022/06/19 04:29:43;;;;;;;24.50;3.53;;;11.80;99.60;;;;;;6160428;23;20435;-81
2022/06/19 04:32:09;;;;;;;27.20;2.70;;;11.80;99.60;;;;;;6211342;22;20011;-78
2022/06/19 04:34:37;;;;;;;26.60;3.72;;;11.70;99.80;;;;;;6195481;23;20012;-77
2022/06/19 04:37:06;;;;;;;25.92;2.95;;;11.70;99.90;;;;;;6200127;23;20046;-76
2022/06/19 04:39:34;;;;;;;18.35;2.70;;;11.70;99.90;;;;;;6220414;23;20008;-77
2022/06/19 04:42:00;;;;;;;20.63;2.80;;;11.70;99.90;;;;;;6219852;22;20008;-77
2022/06/19 04:44:29;;;;;;;25.10;3.65;;;11.70;99.60;;;;;;6195874;23;20091;-78
2022/06/19 04:46:55;;;;;;;24.20;3.08;;;11.70;99.80;;;;;;6195459;23;20345;-78
2022/06/19 04:49:20;;;;;;;24.80;2.60;;;11.70;99.70;;;;;;6194889;23;20011;-78
2022/06/19 04:51:49;;;;;;;20.00;2.50;;;11.60;99.60;;;;;;6194973;23;20357;-78
2022/06/19 04:54:14;;;;;;;13.25;2.42;;;11.70;99.80;;;;;;6194694;23;20262;-79
2022/06/19 04:56:40;;;;;;;19.00;2.70;;;11.70;99.60;;;;;;6195299;23;20470;-79
2022/06/19 04:59:07;;;;;;;;;;;11.80;99.80;;;;;;6220312;23;20019;-78
2022/06/19 05:01:35;;;;;;;13.13;2.15;;;11.90;99.60;;;;;;6194266;23;19914;-78
2022/06/19 05:04:04;;;;;;;21.15;2.25;;;11.70;99.40;;;;;;6194795;23;20019;-77
2022/06/19 05:06:30;;;;;;;14.95;2.30;;;11.70;99.50;;;;;;6195196;23;20015;-80
2022/06/19 05:08:58;;;;;;;15.55;2.10;;;11.70;99.40;;;;;;6194715;23;20101;-77
2022/06/19 05:11:27;;;;;;;16.38;2.00;;;11.70;99.40;;;;;;6194733;23;20074;-79
2022/06/19 05:13:53;;;;;;;17.15;2.35;;;11.70;99.20;;;;;;6245180;22;20008;-79
2022/06/19 05:16:21;;;;;;;15.60;2.22;;;11.70;99.50;;;;;;6194655;23;20323;-78
2022/06/19 05:18:49;;;;;;;14.30;2.15;;;11.80;99.40;;;;;;6195023;23;20083;-77
2022/06/19 05:21:15;;;;;;;14.07;2.05;;;11.70;99.30;;;;;;6244510;23;20004;-77
2022/06/19 05:23:44;;;;;;;15.57;2.33;;;11.80;99.30;;;;;;6219040;23;20434;-78
2022/06/19 05:26:12;;;;;;;17.55;2.10;;;11.80;99.20;;;;;;6219874;23;20016;-79
2022/06/19 05:28:38;;;;;;;24.40;2.28;;;11.90;98.90;;;;;;6219524;23;20086;-79
2022/06/19 05:31:04;;;;;;;15.05;2.00;;;11.90;99.00;;;;;;6194159;23;20069;-77
2022/06/19 05:33:31;;;;;;;;;;;11.90;99.00;;;;;;6195312;23;20004;-78
2022/06/19 05:35:57;;;;;;;12.13;2.72;;;11.90;99.30;;;;;;6195026;23;19962;-77
2022/06/19 05:38:24;;;;;;;11.13;2.30;;;12.00;99.10;;;;;;6195025;23;20040;-77
2022/06/19 05:40:51;;;;;;;;;;;12.00;99.10;;;;;;6194801;23;20353;-76
2022/06/19 05:43:17;;;;;;;8.57;1.85;;;12.00;99.80;;;;;;6194741;23;19989;-76
2022/06/19 05:45:55;;;;;;;14.52;1.92;;;12.00;99.40;;;;;;6194147;23;20012;-78
2022/06/19 05:48:21;;;;;;;13.45;2.08;;;12.00;99.40;;;;;;6194830;23;20021;-80
2022/06/19 05:51:05;;;;;;;13.43;1.70;;;12.00;99.50;;;;;;6218676;23;20019;-79
2022/06/19 05:53:33;;;;;;;13.70;2.13;;;12.00;99.60;;;;;;6194685;23;20457;-78
2022/06/19 05:55:59;;;;;;;11.23;2.20;;;12.20;99.30;;;;;;6194802;23;20091;-79
2022/06/19 05:58:25;;;;;;;13.98;2.40;;;12.30;99.30;;;;;;6197866;23;20015;-79
2022/06/19 06:00:52;;;;;;;13.63;1.88;;;12.40;99.10;;;;;;6213616;23;20019;-79
2022/06/19 06:03:19;;;;;;;11.70;2.10;;;12.50;98.80;;;;;;6210499;23;20314;-79
2022/06/19 06:05:46;;;;;;;10.68;1.60;;;12.50;98.90;;;;;;6194537;23;20011;-78
2022/06/19 06:08:16;;;;;;;11.02;1.80;;;12.60;98.80;;;;;;6194682;23;20019;-77
2022/06/19 06:10:42;;;;;;;11.95;2.00;;;12.60;98.50;;;;;;6193982;23;20008;-78
2022/06/19 06:13:08;;;;;;;23.20;3.83;;;12.60;98.80;;;;;;6194550;23;20084;-78
2022/06/19 06:15:34;;;;;;;12.95;2.00;;;12.60;98.60;;;;;;6194531;23;20038;-77
2022/06/19 06:18:02;;;;;;;13.32;2.25;;;12.60;98.50;;;;;;6194633;23;20004;-78
2022/06/19 06:20:30;;;;;;;14.55;2.28;;;12.60;98.60;;;;;;6194560;23;20008;-78
2022/06/19 06:22:56;;;;;;;16.00;2.20;;;12.80;98.50;;;;;;6193970;23;20461;-78
2022/06/19 06:25:23;;;;;;;11.02;2.35;;;12.90;98.20;;;;;;6219746;23;20439;-78
2022/06/19 06:27:52;;;;;;;10.73;1.80;;;12.90;97.80;;;;;;6195266;23;20046;-77
2022/06/19 06:30:21;;;;;;;14.00;2.20;;;13.00;98.10;;;;;;6194208;23;20481;-78
2022/06/19 06:32:49;;;;;;;13.63;2.65;;;13.10;97.40;;;;;;6169755;23;20091;-78
2022/06/19 06:35:15;;;;;;;11.25;1.92;;;13.20;97.40;;;;;;6194657;23;20426;-79
2022/06/19 06:37:41;;;;;;;12.13;2.25;;;13.30;96.90;;;;;;6219898;23;20008;-76
2022/06/19 06:40:08;;;;;;;15.63;2.10;;;13.30;96.80;;;;;;6193754;23;20008;-77
2022/06/19 06:42:35;;;;;;;9.15;1.80;;;13.30;96.30;;;;;;6194346;23;20012;-76
2022/06/19 06:45:01;;;;;;;8.38;1.75;;;13.30;96.50;;;;;;6194652;23;20315;-75
2022/06/19 06:47:28;;;;;;;13.48;1.50;;;13.30;96.70;;;;;;6194561;23;20047;-77
2022/06/19 06:49:53;;;;;;;12.68;1.90;;;13.40;95.90;;;;;;6218841;23;20009;-77
2022/06/19 06:52:19;;;;;;;7.65;1.58;;;13.40;96.40;;;;;;6193687;22;20004;-76
2022/06/19 06:55:14;;;;;;;9.27;1.60;;;13.40;96.00;;;;;;6194480;23;20040;-75
2022/06/19 06:57:40;;;;;;;11.77;1.77;;;13.50;94.90;;;;;;6169774;23;20058;-75
2022/06/19 07:00:08;;;;;;;9.60;1.90;;;13.50;95.60;;;;;;6220727;23;20000;-73
2022/06/19 07:02:34;;;;;;;8.32;1.95;;;13.60;95.70;;;;;;6220509;23;20087;-78
2022/06/19 07:05:00;;;;;;;15.38;2.83;;;13.60;95.20;;;;;;6195943;23;20048;-76
2022/06/19 07:07:25;;;;;;;12.85;1.88;;;13.70;94.80;;;;;;6195449;23;20012;-76
2022/06/19 07:09:51;;;;;;;11.82;1.75;;;13.60;94.90;;;;;;6194783;23;20443;-76
2022/06/19 07:12:20;;;;;;;12.00;1.88;;;13.60;95.00;;;;;;6195589;22;20043;-79
2022/06/19 07:14:45;;;;;;;18.02;3.10;;;13.60;95.00;;;;;;6221556;23;20008;-76
2022/06/19 07:17:11;;;;;;;10.13;1.70;;;13.70;94.60;;;;;;6196048;23;20322;-78
2022/06/19 07:19:37;;;;;;;9.57;1.60;;;13.60;94.80;;;;;;6220554;23;20042;-76
2022/06/19 08:39:29;;;;;;;5.60;1.88;;;14.70;92.60;;;;;;6246772;22;20446;-74
2022/06/19 08:42:18;;;;;;;25.08;2.40;;;15.00;91.90;;;;;;6076105;23;20072;-74
2022/06/19 08:45:26;;;;;;;7.63;1.10;;;15.00;92.60;;;;;;6075983;23;20037;-81
2022/06/19 08:48:03;;;;;;;4.72;1.10;;;15.00;91.00;;;;;;6194472;23;20012;-80
2022/06/19 08:50:55;;;;;;;9.25;1.52;;;15.10;91.90;;;;;;6195662;23;20012;-77
2022/06/19 08:57:42;;;;;;;5.32;1.25;;;15.30;92.90;;;;;;6246904;23;20004;-80
2022/06/19 09:00:16;;;;;;;9.90;1.38;;;15.50;92.10;;;;;;6218886;23;20052;-72
2022/06/19 09:07:06;;;;;;;7.10;1.60;;;15.50;92.10;;;;;;6246533;23;20007;-81
2022/06/19 09:10:22;;;;;;;8.80;1.75;;;15.40;91.80;;;;;;6194370;23;20088;-81
2022/06/19 09:13:49;;;;;;;5.43;1.48;;;15.40;92.00;;;;;;6187463;23;20343;-76
2022/06/19 09:17:08;;;;;;;;;;;;;;;;;;;;;
2022/06/19 09:20:33;;;;;;;6.32;1.10;;;15.30;91.90;;;;;;6186443;23;20019;-68
2022/06/19 09:26:08;;;;;;;5.60;1.42;;;15.20;91.90;;;;;;6199482;22;20027;-74
2022/06/19 09:28:53;;;;;;;8.20;1.58;;;15.30;91.20;;;;;;6278178;22;20047;-75
2022/06/19 09:31:25;;;;;;;6.95;1.40;;;15.30;91.30;;;;;;6276767;22;20018;-73
2022/06/19 09:34:14;;;;;;;6.97;1.60;;;15.20;91.40;;;;;;6248005;22;20362;-70
2022/06/19 09:36:56;;;;;;;7.30;1.38;;;15.30;91.30;;;;;;6248894;22;20058;-71
2022/06/19 09:39:48;;;;;;;8.35;1.73;;;15.20;91.10;;;;;;6248785;22;20422;-72
2022/06/19 09:42:40;;;;;;;9.27;1.40;;;15.20;91.10;;;;;;6248447;22;20449;-74
2022/06/19 09:49:38;;;;;;;8.20;1.58;;;15.60;90.60;;;;;;6122186;23;20065;-72
2022/06/19 09:52:49;;;;;;;11.30;1.50;;;15.60;88.50;;;;;;6087115;22;20006;-74
2022/06/19 10:03:17;;;;;;;;;;;;;;;;;;;;;
2022/06/19 10:06:55;;;;;;;6.97;1.55;;;16.30;86.90;;;;;;6219925;22;20007;-71
2022/06/19 10:14:07;;;;;;;7.47;1.60;;;16.40;86.20;;;;;;6246640;22;20019;-75
2022/06/19 10:16:48;;;;;;;11.38;1.83;;;16.70;84.20;;;;;;6097998;23;20021;-74
2022/06/19 10:19:24;;;;;;;11.63;1.65;;;17.10;84.30;;;;;;6248094;22;20437;-67
2022/06/19 10:22:14;;;;;;;8.98;1.63;;;17.20;83.60;;;;;;6222863;22;20015;-72
2022/06/19 10:25:08;;;;;;;8.82;1.60;;;17.00;82.60;;;;;;6247902;22;20090;-73
2022/06/19 10:27:52;;;;;;;8.43;1.27;;;16.90;82.70;;;;;;6247940;22;20043;-71
2022/06/19 10:30:46;;;;;;;5.78;1.35;;;16.90;82.10;;;;;;6248334;22;20426;-71
2022/06/19 10:33:42;;;;;;;7.63;1.52;;;16.90;82.90;;;;;;6251354;22;20011;-71
2022/06/19 10:36:49;;;;;;;6.70;1.63;;;16.90;84.10;;;;;;6252459;22;20011;-74
2022/06/19 10:39:46;;;;;;;7.78;1.73;;;16.80;82.50;;;;;;6217302;22;20018;-74
2022/06/19 10:42:44;;;;;;;6.50;1.52;;;16.90;81.30;;;;;;6250245;22;20008;-70
2022/06/19 10:45:40;;;;;;;6.38;1.33;;;17.00;82.50;;;;;;6249774;22;20007;-69
2022/06/19 10:48:24;;;;;;;8.50;2.08;;;17.10;79.10;;;;;;6277503;22;20011;-69
2022/06/19 10:51:09;;;;;;;6.78;1.30;;;17.10;79.60;;;;;;6250249;22;20150;-67
2022/06/19 10:53:56;;;;;;;11.60;2.65;;;17.10;81.00;;;;;;6224072;22;20020;-70
2022/06/19 10:56:21;;;;;;;7.38;1.55;;;17.20;78.60;;;;;;6224628;22;20096;-71
2022/06/19 10:58:47;;;;;;;6.50;1.40;;;17.40;78.40;;;;;;6277247;22;20106;-70
2022/06/19 11:04:06;;;;;;;5.47;1.58;;;17.40;76.30;;;;;;6224559;22;20086;-70
2022/06/19 11:07:25;;;;;;;8.48;1.63;;;17.50;77.20;;;;;;6248274;22;20012;-72
2022/06/19 11:10:01;;;;;;;8.43;1.50;;;17.60;76.50;;;;;;6225183;22;20018;-72
2022/06/19 11:12:56;;;;;;;14.05;2.22;;;17.70;77.20;;;;;;6224115;22;20406;-74
2022/06/19 11:15:32;;;;;;;8.55;1.90;;;17.70;75.30;;;;;;6249339;22;20012;-75
2022/06/19 11:18:38;;;;;;;9.65;1.90;;;17.80;75.50;;;;;;6224411;22;20011;-76
2022/06/19 11:21:54;;;;;;;6.68;1.73;;;17.60;74.80;;;;;;6247310;22;20008;-73
2022/06/19 11:24:42;;;;;;;9.07;1.73;;;17.70;75.70;;;;;;6210815;22;20015;-73
2022/06/19 11:27:13;;;;;;;;;;;17.60;73.90;;;;;;6223977;22;20122;-72
2022/06/19 11:29:42;;;;;;;6.97;1.50;;;17.50;75.20;;;;;;6250068;22;20314;-74
2022/06/19 11:32:17;;;;;;;7.43;1.83;;;17.40;76.00;;;;;;6250044;22;20434;-72
2022/06/19 11:35:05;;;;;;;11.82;1.83;;;17.50;76.80;;;;;;6224582;22;20011;-73
2022/06/19 11:37:57;;;;;;;6.68;1.70;;;17.40;77.00;;;;;;6223269;22;20503;-73
2022/06/19 11:40:36;;;;;;;8.32;1.65;;;17.50;77.00;;;;;;6249802;22;20500;-75
2022/06/19 11:43:03;;;;;;;11.85;2.15;;;17.40;76.00;;;;;;6223348;22;20315;-72
2022/06/19 11:45:35;;;;;;;11.07;1.98;;;17.50;77.80;;;;;;6198494;22;20020;-72
2022/06/19 11:48:14;;;;;;;10.07;2.05;;;17.50;78.30;;;;;;6223872;22;20030;-73
2022/06/19 11:50:51;;;;;;;10.73;1.70;;;17.60;78.50;;;;;;6223307;22;20008;-73
2022/06/19 11:53:27;;;;;;;5.85;1.48;;;17.60;77.50;;;;;;6249582;22;20019;-74
2022/06/19 11:56:21;;;;;;;10.05;2.58;;;17.70;78.20;;;;;;6248430;22;20008;-68
2022/06/19 11:59:02;;;;;;;7.38;1.70;;;18.00;79.10;;;;;;6249324;22;20507;-72
2022/06/19 12:01:43;;;;;;;8.88;1.83;;;18.30;80.20;;;;;;6249413;22;20023;-66
2022/06/19 12:04:34;;;;;;;9.60;2.33;;;18.60;79.20;;;;;;6249438;22;20085;-70
2022/06/19 12:07:19;;;;;;;9.40;2.60;;;18.50;76.50;;;;;;6248804;22;20007;-70
2022/06/19 12:10:23;;;;;;;8.55;1.70;;;18.50;75.30;;;;;;6221196;22;20020;-72
2022/06/19 12:16:09;;;;;;;8.50;1.67;;;18.30;75.00;;;;;;6237680;22;20065;-71
2022/06/19 12:18:35;;;;;;;12.60;1.98;;;18.20;73.70;;;;;;6246822;22;20003;-67
2022/06/19 12:21:12;;;;;;;6.93;1.42;;;18.00;75.10;;;;;;6249007;22;20035;-72
2022/06/19 12:23:44;;;;;;;10.48;2.00;;;18.30;74.80;;;;;;6223560;22;20015;-74
2022/06/19 12:26:19;;;;;;;11.70;1.92;;;18.50;75.20;;;;;;6248288;22;20012;-72
2022/06/19 12:28:52;;;;;;;9.50;2.30;;;18.60;74.70;;;;;;6247352;22;20020;-69
2022/06/19 12:31:36;;;;;;;13.35;2.47;;;18.70;73.50;;;;;;6250982;22;20614;-72
2022/06/19 12:34:30;;;;;;;10.88;2.08;;;18.70;73.00;;;;;;6250137;22;20003;-72
2022/06/19 12:36:58;;;;;;;12.18;2.38;;;18.60;73.60;;;;;;6224970;22;20016;-70
2022/06/19 12:39:29;;;;;;;7.22;1.98;;;18.80;72.00;;;;;;6225211;22;20015;-71
2022/06/19 12:42:30;;;;;;;10.68;2.75;;;19.00;71.80;;;;;;6225152;22;20434;-72
2022/06/19 12:45:25;;;;;;;15.43;2.20;;;19.30;71.10;;;;;;6224352;22;20008;-72
2022/06/19 12:48:04;;;;;;;12.30;2.33;;;19.50;71.00;;;;;;6250390;22;20004;-73
2022/06/19 12:50:39;;;;;;;10.18;2.45;;;19.70;72.40;;;;;;6224949;22;20011;-70
2022/06/19 12:53:14;;;;;;;10.68;2.08;;;19.60;71.90;;;;;;6224956;22;20016;-73
2022/06/19 12:55:55;;;;;;;12.45;1.98;;;19.60;72.50;;;;;;6224568;22;20011;-73
2022/06/19 12:58:49;;;;;;;23.25;2.85;;;19.70;74.20;;;;;;6224458;22;20007;-72
2022/06/19 13:01:18;;;;;;;13.23;2.20;;;19.80;74.40;;;;;;6249912;22;20071;-73
2022/06/19 13:03:53;;;;;;;12.68;2.17;;;19.90;73.10;;;;;;6250053;22;20007;-72
2022/06/19 13:07:13;;;;;;;9.55;1.98;;;19.90;73.30;;;;;;6250140;22;20014;-73
2022/06/19 13:10:34;;;;;;;13.23;2.60;;;19.90;73.50;;;;;;6074874;23;20073;-73
2022/06/19 13:13:29;;;;;;;12.45;2.40;;;20.30;74.20;;;;;;6180179;22;20018;-70
2022/06/19 13:16:36;;;;;;;6.10;2.00;;;20.50;74.10;;;;;;6224888;22;20330;-75
2022/06/19 13:19:17;;;;;;;8.45;2.10;;;20.70;71.60;;;;;;6224241;22;20015;-78
2022/06/19 13:22:11;;;;;;;13.43;2.10;;;20.90;72.50;;;;;;6224806;22;20012;-73
2022/06/19 13:24:40;;;;;;;9.75;2.03;;;21.00;70.90;;;;;;6224480;22;20010;-74
2022/06/19 13:27:23;;;;;;;10.10;2.33;;;21.40;72.80;;;;;;6224350;22;20070;-73
2022/06/19 13:30:12;;;;;;;13.45;2.50;;;21.50;68.70;;;;;;6222935;22;20422;-73
2022/06/19 13:32:56;;;;;;;15.52;2.28;;;21.00;67.70;;;;;;6224724;22;20090;-74
2022/06/19 13:35:53;;;;;;;10.52;1.90;;;20.10;70.30;;;;;;6250242;22;20115;-74
2022/06/19 13:38:44;;;;;;;9.35;2.03;;;20.10;73.40;;;;;;6224122;22;20014;-73
2022/06/19 13:41:51;;;;;;;10.57;2.83;;;20.00;73.40;;;;;;6248360;22;20011;-73
2022/06/19 13:44:52;;;;;;;10.77;2.25;;;20.30;71.60;;;;;;6190993;22;20005;-74
2022/06/19 13:47:38;;;;;;;10.25;2.28;;;20.50;70.70;;;;;;6203926;22;20018;-74
2022/06/19 13:50:32;;;;;;;9.05;1.75;;;20.50;72.40;;;;;;6249472;22;20015;-73
2022/06/19 13:53:17;;;;;;;10.88;2.13;;;20.50;67.50;;;;;;6245058;22;20015;-74
2022/06/19 13:56:12;;;;;;;11.13;1.98;;;20.50;69.40;;;;;;6225529;22;20023;-74
2022/06/19 13:59:29;;;;;;;9.43;2.38;;;21.00;70.00;;;;;;6250071;22;20012;-74
2022/06/19 14:02:18;;;;;;;9.10;2.00;;;21.70;67.80;;;;;;6162346;22;20065;-74
2022/06/19 14:05:23;;;;;;;7.45;2.00;;;21.80;65.10;;;;;;6276942;22;20057;-74
2022/06/19 14:08:27;;;;;;;11.02;2.30;;;21.90;64.60;;;;;;6224382;22;20016;-73
2022/06/19 14:11:05;;;;;;;9.57;1.95;;;21.50;66.90;;;;;;6242295;22;20008;-74
2022/06/19 14:13:44;;;;;;;10.82;1.95;;;21.20;66.70;;;;;;6249806;22;20441;-73
2022/06/19 14:16:21;;;;;;;18.60;2.60;;;20.80;68.00;;;;;;6249819;22;20441;-74
2022/06/19 14:18:58;;;;;;;13.77;2.50;;;20.60;69.30;;;;;;6249212;22;20011;-74
2022/06/19 14:21:27;;;;;;;13.27;2.53;;;20.20;71.50;;;;;;6249819;22;20484;-73
2022/06/19 14:24:14;;;;;;;12.18;2.65;;;20.00;72.90;;;;;;6249913;22;20020;-73
2022/06/19 14:26:53;;;;;;;11.65;2.55;;;19.90;71.40;;;;;;6249721;22;20043;-74
2022/06/19 14:29:22;;;;;;;10.43;2.10;;;19.90;73.60;;;;;;6275922;22;20422;-74
2022/06/19 14:31:48;;;;;;;11.85;2.60;;;19.90;71.90;;;;;;6249652;22;20016;-74
2022/06/19 14:34:43;;;;;;;13.07;2.70;;;20.00;72.40;;;;;;6249535;22;20426;-74
2022/06/19 14:37:21;;;;;;;11.20;2.17;;;19.90;71.20;;;;;;6249120;22;20042;-74
2022/06/19 14:39:49;;;;;;;11.68;2.40;;;20.10;72.70;;;;;;6249139;22;20008;-74
2022/06/19 14:42:16;;;;;;;12.68;2.25;;;20.20;71.50;;;;;;6249591;22;20061;-74
2022/06/19 14:44:50;;;;;;;10.57;2.10;;;20.30;71.90;;;;;;6249782;22;20373;-75
2022/06/19 14:47:51;;;;;;;14.93;2.78;;;20.50;72.10;;;;;;6276664;22;20145;-75
2022/06/19 14:51:01;;;;;;;11.13;1.80;;;20.50;68.60;;;;;;6249415;22;20007;-75
2022/06/19 14:53:42;;;;;;;8.32;1.98;;;20.50;71.40;;;;;;6224320;22;20019;-74
2022/06/19 14:56:35;;;;;;;11.30;2.45;;;20.50;69.50;;;;;;6249716;22;20015;-73
2022/06/19 14:59:04;;;;;;;12.48;2.25;;;20.50;69.70;;;;;;6249131;22;20012;-74
2022/06/19 15:01:40;;;;;;;12.05;2.03;;;20.50;69.30;;;;;;6249293;22;20012;-76
2022/06/19 15:04:14;;;;;;;9.55;2.20;;;20.40;66.80;;;;;;6249796;22;20015;-72
2022/06/19 15:06:48;;;;;;;10.32;2.05;;;20.20;67.50;;;;;;6276819;22;20354;-74
2022/06/19 15:09:45;;;;;;;7.30;1.90;;;20.50;69.30;;;;;;6224041;22;20018;-73
2022/06/19 15:12:13;;;;;;;8.73;1.90;;;20.90;67.90;;;;;;6222162;22;20012;-74
2022/06/19 15:15:11;;;;;;;9.70;1.80;;;20.70;66.10;;;;;;6276604;22;20016;-75
2022/06/19 15:17:41;;;;;;;7.07;1.73;;;20.60;67.90;;;;;;6241683;22;20011;-74
2022/06/19 15:20:29;;;;;;;12.02;1.60;;;20.40;68.50;;;;;;6251106;22;20015;-74
2022/06/19 15:23:15;;;;;;;11.90;2.22;;;20.20;67.70;;;;;;6251443;22;20016;-74
2022/06/19 15:25:42;;;;;;;13.85;2.00;;;20.20;67.90;;;;;;6251760;22;20098;-75
2022/06/19 15:28:43;;;;;;;13.70;2.22;;;20.10;68.90;;;;;;6245249;23;20016;-74